sensor_id;sensor_type;location;lat;lon;timestamp;temperature;humidity
19342;DHT22;9807;48.258;12.690;2024-03-23T00:53:30;13.70;99.90
19342;DHT22;9807;48.258;12.690;2024-03-23T00:55:55;13.50;99.90
19342;DHT22;9807;48.258;12.690;2024-03-23T00:58:21;13.00;99.90
19342;DHT22;9807;48.258;12.690;2024-03-23T01:00:47;12.40;99.90
19342;DHT22;9807;48.258;12.690;2024-03-23T01:03:12;12.20;99.90
19342;DHT22;9807;48.258;12.690;2024-03-23T01:05:38;12.00;99.90
19342;DHT22;9807;48.258;12.690;2024-03-23T01:08:04;12.00;99.90
19342;DHT22;9807;48.258;12.690;2024-03-23T01:10:30;12.20;99.90
19342;DHT22;9807;48.258;12.690;2024-03-23T01:12:56;12.50;99.90
19342;DHT22;9807;48.258;12.690;2024-03-23T01:15:21;12.70;99.90
19342;DHT22;9807;48.258;12.690;2024-03-23T01:17:47;12.80;99.90
19342;DHT22;9807;48.258;12.690;2024-03-23T01:20:13;12.90;99.90
19342;DHT22;9807;48.258;12.690;2024-03-23T01:22:38;12.90;99.90
19342;DHT22;9807;48.258;12.690;2024-03-23T01:25:04;12.90;99.90
19342;DHT22;9807;48.258;12.690;2024-03-23T01:27:30;12.60;99.90
19342;DHT22;9807;48.258;12.690;2024-03-23T01:29:55;12.60;99.90
19342;DHT22;9807;48.258;12.690;2024-03-23T01:32:21;12.60;99.90
19342;DHT22;9807;48.258;12.690;2024-03-23T01:34:47;12.80;99.90
19342;DHT22;9807;48.258;12.690;2024-03-23T01:37:13;12.80;99.90
19342;DHT22;9807;48.258;12.690;2024-03-23T01:39:38;12.90;99.90
19342;DHT22;9807;48.258;12.690;2024-03-23T01:42:04;12.90;99.90
19342;DHT22;9807;48.258;12.690;2024-03-23T01:44:30;13.00;99.90
19342;DHT22;9807;48.258;12.690;2024-03-23T01:46:55;13.00;99.90
19342;DHT22;9807;48.258;12.690;2024-03-23T01:49:21;13.00;99.90
19342;DHT22;9807;48.258;12.690;2024-03-23T01:51:47;13.00;99.90
19342;DHT22;9807;48.258;12.690;2024-03-23T01:54:13;12.90;99.90
19342;DHT22;9807;48.258;12.690;2024-03-23T01:56:39;12.90;99.90
19342;DHT22;9807;48.258;12.690;2024-03-23T01:59:05;12.90;99.90
19342;DHT22;9807;48.258;12.690;2024-03-23T02:01:32;12.90;99.90
19342;DHT22;9807;48.258;12.690;2024-03-23T02:03:57;12.90;99.90
19342;DHT22;9807;48.258;12.690;2024-03-23T02:06:26;12.90;99.90
19342;DHT22;9807;48.258;12.690;2024-03-23T02:08:56;12.90;99.90
19342;DHT22;9807;48.258;12.690;2024-03-23T02:11:22;12.80;99.90
19342;DHT22;9807;48.258;12.690;2024-03-23T02:13:48;12.70;99.90
19342;DHT22;9807;48.258;12.690;2024-03-23T02:16:13;12.60;99.90
19342;DHT22;9807;48.258;12.690;2024-03-23T02:18:39;12.60;99.90
19342;DHT22;9807;48.258;12.690;2024-03-23T02:21:05;12.60;99.90
19342;DHT22;9807;48.258;12.690;2024-03-23T02:23:31;12.70;99.90
19342;DHT22;9807;48.258;12.690;2024-03-23T02:25:56;12.70;99.90
19342;DHT22;9807;48.258;12.690;2024-03-23T02:28:22;12.70;99.90
19342;DHT22;9807;48.258;12.690;2024-03-23T02:30:51;12.70;99.90
19342;DHT22;9807;48.258;12.690;2024-03-23T02:33:17;12.70;99.90
19342;DHT22;9807;48.258;12.690;2024-03-23T02:35:44;12.70;99.90
19342;DHT22;9807;48.258;12.690;2024-03-23T02:38:10;12.70;99.90
19342;DHT22;9807;48.258;12.690;2024-03-23T02:40:36;12.70;99.90
19342;DHT22;9807;48.258;12.690;2024-03-23T02:43:03;12.60;99.90
19342;DHT22;9807;48.258;12.690;2024-03-23T02:45:29;12.20;99.90
19342;DHT22;9807;48.258;12.690;2024-03-23T02:47:54;11.90;99.90
19342;DHT22;9807;48.258;12.690;2024-03-23T02:50:21;11.90;99.90
19342;DHT22;9807;48.258;12.690;2024-03-23T02:52:47;11.90;99.90
19342;DHT22;9807;48.258;12.690;2024-03-23T02:55:13;12.00;99.90
19342;DHT22;9807;48.258;12.690;2024-03-23T02:57:39;12.10;99.90
19342;DHT22;9807;48.258;12.690;2024-03-23T03:00:05;12.20;99.90
19342;DHT22;9807;48.258;12.690;2024-03-23T03:02:33;12.20;99.90
19342;DHT22;9807;48.258;12.690;2024-03-23T03:04:58;12.20;99.90
19342;DHT22;9807;48.258;12.690;2024-03-23T03:07:24;12.20;99.90
19342;DHT22;9807;48.258;12.690;2024-03-23T03:09:50;12.30;99.90
19342;DHT22;9807;48.258;12.690;2024-03-23T03:12:16;12.30;99.90
19342;DHT22;9807;48.258;12.690;2024-03-23T03:14:41;12.40;99.90
19342;DHT22;9807;48.258;12.690;2024-03-23T03:17:07;12.30;99.90
19342;DHT22;9807;48.258;12.690;2024-03-23T03:19:33;12.30;99.90
19342;DHT22;9807;48.258;12.690;2024-03-23T03:21:59;12.30;99.90
19342;DHT22;9807;48.258;12.690;2024-03-23T03:24:25;12.20;99.90
19342;DHT22;9807;48.258;12.690;2024-03-23T03:26:50;12.20;99.90
19342;DHT22;9807;48.258;12.690;2024-03-23T03:29:16;12.10;99.90
19342;DHT22;9807;48.258;12.690;2024-03-23T03:31:43;12.10;99.90
19342;DHT22;9807;48.258;12.690;2024-03-23T03:34:10;12.00;99.90
19342;DHT22;9807;48.258;12.690;2024-03-23T03:36:36;12.10;99.90
19342;DHT22;9807;48.258;12.690;2024-03-23T03:39:02;12.10;99.90
19342;DHT22;9807;48.258;12.690;2024-03-23T03:41:32;12.10;99.90
19342;DHT22;9807;48.258;12.690;2024-03-23T03:43:58;12.10;99.90
19342;DHT22;9807;48.258;12.690;2024-03-23T03:46:30;12.10;99.90
19342;DHT22;9807;48.258;12.690;2024-03-23T03:48:55;12.10;99.90
19342;DHT22;9807;48.258;12.690;2024-03-23T03:51:21;12.10;99.90
19342;DHT22;9807;48.258;12.690;2024-03-23T03:53:47;11.90;99.90
19342;DHT22;9807;48.258;12.690;2024-03-23T03:56:12;11.80;99.90
19342;DHT22;9807;48.258;12.690;2024-03-23T03:58:38;11.80;99.90
19342;DHT22;9807;48.258;12.690;2024-03-23T04:01:05;11.80;99.90
19342;DHT22;9807;48.258;12.690;2024-03-23T04:03:31;11.80;99.90
19342;DHT22;9807;48.258;12.690;2024-03-23T04:05:56;11.80;99.90
19342;DHT22;9807;48.258;12.690;2024-03-23T04:08:22;11.80;99.90
19342;DHT22;9807;48.258;12.690;2024-03-23T04:10:47;11.80;99.90
19342;DHT22;9807;48.258;12.690;2024-03-23T04:13:14;11.80;99.90
19342;DHT22;9807;48.258;12.690;2024-03-23T04:15:39;11.80;99.90
19342;DHT22;9807;48.258;12.690;2024-03-23T04:18:06;11.80;99.90
19342;DHT22;9807;48.258;12.690;2024-03-23T04:20:32;11.90;99.90
19342;DHT22;9807;48.258;12.690;2024-03-23T04:22:59;11.80;99.90
19342;DHT22;9807;48.258;12.690;2024-03-23T04:25:24;11.80;99.90
19342;DHT22;9807;48.258;12.690;2024-03-23T04:27:50;11.70;99.90
19342;DHT22;9807;48.258;12.690;2024-03-23T04:30:16;11.70;99.90
19342;DHT22;9807;48.258;12.690;2024-03-23T04:32:43;11.70;99.90
19342;DHT22;9807;48.258;12.690;2024-03-23T04:35:10;11.70;99.90
19342;DHT22;9807;48.258;12.690;2024-03-23T04:37:37;11.70;99.90
19342;DHT22;9807;48.258;12.690;2024-03-23T04:40:03;11.30;99.90
19342;DHT22;9807;48.258;12.690;2024-03-23T04:42:30;11.20;99.90
19342;DHT22;9807;48.258;12.690;2024-03-23T04:44:56;10.80;99.90
19342;DHT22;9807;48.258;12.690;2024-03-23T04:47:21;10.40;99.90
19342;DHT22;9807;48.258;12.690;2024-03-23T04:49:48;10.50;99.90
19342;DHT22;9807;48.258;12.690;2024-03-23T04:52:13;10.70;99.90
19342;DHT22;9807;48.258;12.690;2024-03-23T04:54:39;10.90;99.90
19342;DHT22;9807;48.258;12.690;2024-03-23T04:57:07;11.10;99.90
19342;DHT22;9807;48.258;12.690;2024-03-23T04:59:35;11.20;99.90
19342;DHT22;9807;48.258;12.690;2024-03-23T05:02:01;11.30;99.90
19342;DHT22;9807;48.258;12.690;2024-03-23T05:04:28;11.30;99.90
19342;DHT22;9807;48.258;12.690;2024-03-23T05:06:53;11.40;99.90
19342;DHT22;9807;48.258;12.690;2024-03-23T05:09:19;11.40;99.90
19342;DHT22;9807;48.258;12.690;2024-03-23T05:11:45;11.40;99.90
19342;DHT22;9807;48.258;12.690;2024-03-23T05:14:13;11.50;99.90
19342;DHT22;9807;48.258;12.690;2024-03-23T05:16:39;11.50;99.90
19342;DHT22;9807;48.258;12.690;2024-03-23T05:19:05;11.30;99.90
19342;DHT22;9807;48.258;12.690;2024-03-23T05:21:31;11.40;99.90
19342;DHT22;9807;48.258;12.690;2024-03-23T05:23:56;11.40;99.90
19342;DHT22;9807;48.258;12.690;2024-03-23T05:26:22;11.40;99.90
19342;DHT22;9807;48.258;12.690;2024-03-23T05:28:48;11.50;99.90
19342;DHT22;9807;48.258;12.690;2024-03-23T05:31:26;11.50;99.90
19342;DHT22;9807;48.258;12.690;2024-03-23T05:33:52;11.50;99.90
19342;DHT22;9807;48.258;12.690;2024-03-23T05:36:18;11.30;99.90
19342;DHT22;9807;48.258;12.690;2024-03-23T05:38:43;11.30;99.90
19342;DHT22;9807;48.258;12.690;2024-03-23T05:41:13;11.30;99.90
19342;DHT22;9807;48.258;12.690;2024-03-23T05:43:39;11.30;99.90
19342;DHT22;9807;48.258;12.690;2024-03-23T05:46:05;11.30;99.90
19342;DHT22;9807;48.258;12.690;2024-03-23T05:48:31;11.40;99.90
19342;DHT22;9807;48.258;12.690;2024-03-23T05:50:57;11.40;99.90
19342;DHT22;9807;48.258;12.690;2024-03-23T05:53:23;11.50;99.90
19342;DHT22;9807;48.258;12.690;2024-03-23T05:55:50;11.50;99.90
19342;DHT22;9807;48.258;12.690;2024-03-23T05:58:17;11.50;99.90
19342;DHT22;9807;48.258;12.690;2024-03-23T06:00:43;11.60;99.90
19342;DHT22;9807;48.258;12.690;2024-03-23T06:03:10;11.50;99.90
19342;DHT22;9807;48.258;12.690;2024-03-23T06:05:38;11.50;99.90
19342;DHT22;9807;48.258;12.690;2024-03-23T06:08:04;11.60;99.90
19342;DHT22;9807;48.258;12.690;2024-03-23T06:10:30;11.70;99.90
19342;DHT22;9807;48.258;12.690;2024-03-23T06:12:57;11.80;99.90
19342;DHT22;9807;48.258;12.690;2024-03-23T06:15:24;11.90;99.90
19342;DHT22;9807;48.258;12.690;2024-03-23T06:17:49;12.10;99.90
19342;DHT22;9807;48.258;12.690;2024-03-23T06:20:15;12.10;99.90
19342;DHT22;9807;48.258;12.690;2024-03-23T06:22:42;12.10;99.90
19342;DHT22;9807;48.258;12.690;2024-03-23T06:25:08;11.90;99.90
19342;DHT22;9807;48.258;12.690;2024-03-23T06:27:35;11.90;99.90
19342;DHT22;9807;48.258;12.690;2024-03-23T06:30:01;11.60;99.90
19342;DHT22;9807;48.258;12.690;2024-03-23T06:32:28;11.90;99.90
19342;DHT22;9807;48.258;12.690;2024-03-23T06:34:54;12.10;99.90
19342;DHT22;9807;48.258;12.690;2024-03-23T06:37:20;12.40;99.90
19342;DHT22;9807;48.258;12.690;2024-03-23T06:39:46;12.70;99.90
19342;DHT22;9807;48.258;12.690;2024-03-23T06:42:12;12.90;99.90
19342;DHT22;9807;48.258;12.690;2024-03-23T06:44:39;13.20;99.90
19342;DHT22;9807;48.258;12.690;2024-03-23T06:47:05;13.20;99.90
19342;DHT22;9807;48.258;12.690;2024-03-23T06:49:31;13.10;99.90
19342;DHT22;9807;48.258;12.690;2024-03-23T06:51:57;13.20;99.90
19342;DHT22;9807;48.258;12.690;2024-03-23T06:54:24;13.50;99.90
19342;DHT22;9807;48.258;12.690;2024-03-23T06:56:50;13.60;99.90
19342;DHT22;9807;48.258;12.690;2024-03-23T06:59:15;13.90;99.90
19342;DHT22;9807;48.258;12.690;2024-03-23T07:01:41;14.10;99.90
19342;DHT22;9807;48.258;12.690;2024-03-23T07:04:07;14.20;99.90
19342;DHT22;9807;48.258;12.690;2024-03-23T07:06:42;14.20;99.90
19342;DHT22;9807;48.258;12.690;2024-03-23T07:09:10;14.40;99.90
19342;DHT22;9807;48.258;12.690;2024-03-23T07:11:36;14.60;99.90
19342;DHT22;9807;48.258;12.690;2024-03-23T07:14:02;14.70;99.90
19342;DHT22;9807;48.258;12.690;2024-03-23T07:16:28;14.90;99.90
19342;DHT22;9807;48.258;12.690;2024-03-23T07:18:54;15.10;99.90
19342;DHT22;9807;48.258;12.690;2024-03-23T07:21:21;15.20;99.90
19342;DHT22;9807;48.258;12.690;2024-03-23T07:23:47;15.40;99.90
19342;DHT22;9807;48.258;12.690;2024-03-23T07:26:13;15.60;99.90
19342;DHT22;9807;48.258;12.690;2024-03-23T07:28:40;15.90;99.90
19342;DHT22;9807;48.258;12.690;2024-03-23T07:31:11;15.80;99.90
19342;DHT22;9807;48.258;12.690;2024-03-23T07:33:41;15.50;99.90
19342;DHT22;9807;48.258;12.690;2024-03-23T07:36:07;15.30;99.90
19342;DHT22;9807;48.258;12.690;2024-03-23T07:38:33;15.60;99.90
19342;DHT22;9807;48.258;12.690;2024-03-23T07:41:19;16.00;99.90
19342;DHT22;9807;48.258;12.690;2024-03-23T07:43:46;16.20;99.90
19342;DHT22;9807;48.258;12.690;2024-03-23T07:46:12;15.80;99.90
19342;DHT22;9807;48.258;12.690;2024-03-23T07:48:39;15.60;99.90
19342;DHT22;9807;48.258;12.690;2024-03-23T07:51:10;15.10;99.90
19342;DHT22;9807;48.258;12.690;2024-03-23T07:53:37;15.50;99.90
19342;DHT22;9807;48.258;12.690;2024-03-23T07:56:08;15.90;99.90
19342;DHT22;9807;48.258;12.690;2024-03-23T07:58:37;16.00;99.90
19342;DHT22;9807;48.258;12.690;2024-03-23T08:01:07;15.70;99.90
19342;DHT22;9807;48.258;12.690;2024-03-23T08:03:37;16.10;99.90
19342;DHT22;9807;48.258;12.690;2024-03-23T08:06:13;16.50;99.90
19342;DHT22;9807;48.258;12.690;2024-03-23T08:08:40;16.30;99.90
19342;DHT22;9807;48.258;12.690;2024-03-23T08:11:06;16.50;99.90
19342;DHT22;9807;48.258;12.690;2024-03-23T08:13:32;16.30;99.90
19342;DHT22;9807;48.258;12.690;2024-03-23T08:15:59;15.90;99.90
19342;DHT22;9807;48.258;12.690;2024-03-23T08:18:25;15.30;99.90
19342;DHT22;9807;48.258;12.690;2024-03-23T08:20:58;14.90;99.90
19342;DHT22;9807;48.258;12.690;2024-03-23T08:23:25;14.90;99.90
19342;DHT22;9807;48.258;12.690;2024-03-23T08:25:51;14.90;99.90
19342;DHT22;9807;48.258;12.690;2024-03-23T08:28:17;14.90;99.90
19342;DHT22;9807;48.258;12.690;2024-03-23T08:30:43;15.00;99.90
19342;DHT22;9807;48.258;12.690;2024-03-23T08:33:10;14.90;99.90
19342;DHT22;9807;48.258;12.690;2024-03-23T08:35:38;15.10;99.90
19342;DHT22;9807;48.258;12.690;2024-03-23T08:38:04;15.30;99.90
19342;DHT22;9807;48.258;12.690;2024-03-23T08:40:30;15.30;99.90
19342;DHT22;9807;48.258;12.690;2024-03-23T08:42:55;15.20;99.90
19342;DHT22;9807;48.258;12.690;2024-03-23T08:45:21;15.00;99.90
19342;DHT22;9807;48.258;12.690;2024-03-23T08:47:47;14.70;99.90
19342;DHT22;9807;48.258;12.690;2024-03-23T08:50:13;14.40;99.90
19342;DHT22;9807;48.258;12.690;2024-03-23T08:52:38;14.20;99.90
19342;DHT22;9807;48.258;12.690;2024-03-23T08:55:04;14.00;99.90
19342;DHT22;9807;48.258;12.690;2024-03-23T08:57:30;13.80;99.90
19342;DHT22;9807;48.258;12.690;2024-03-23T08:59:56;13.60;99.90
19342;DHT22;9807;48.258;12.690;2024-03-23T09:02:21;13.30;99.90
19342;DHT22;9807;48.258;12.690;2024-03-23T09:04:47;13.10;99.90
19342;DHT22;9807;48.258;12.690;2024-03-23T09:07:13;13.00;99.90
19342;DHT22;9807;48.258;12.690;2024-03-23T09:09:39;12.60;99.90
19342;DHT22;9807;48.258;12.690;2024-03-23T09:12:05;11.80;99.90
19342;DHT22;9807;48.258;12.690;2024-03-23T09:14:33;11.10;99.90
19342;DHT22;9807;48.258;12.690;2024-03-23T09:16:58;10.80;99.90
19342;DHT22;9807;48.258;12.690;2024-03-23T09:19:26;10.50;99.90
19342;DHT22;9807;48.258;12.690;2024-03-23T09:21:52;10.40;99.90
19342;DHT22;9807;48.258;12.690;2024-03-23T09:24:19;10.30;99.90
19342;DHT22;9807;48.258;12.690;2024-03-23T09:26:44;10.20;99.90
19342;DHT22;9807;48.258;12.690;2024-03-23T09:29:11;10.20;99.90
19342;DHT22;9807;48.258;12.690;2024-03-23T09:31:36;10.20;99.90
19342;DHT22;9807;48.258;12.690;2024-03-23T09:34:03;10.10;99.90
19342;DHT22;9807;48.258;12.690;2024-03-23T09:36:29;10.10;99.90
19342;DHT22;9807;48.258;12.690;2024-03-23T09:38:55;10.00;99.90
19342;DHT22;9807;48.258;12.690;2024-03-23T09:41:20;10.00;99.90
19342;DHT22;9807;48.258;12.690;2024-03-23T09:43:46;10.00;99.90
19342;DHT22;9807;48.258;12.690;2024-03-23T09:46:14;10.00;99.90
19342;DHT22;9807;48.258;12.690;2024-03-23T09:48:40;10.00;99.90
19342;DHT22;9807;48.258;12.690;2024-03-23T09:51:06;10.00;99.90
19342;DHT22;9807;48.258;12.690;2024-03-23T09:53:35;9.90;99.90
19342;DHT22;9807;48.258;12.690;2024-03-23T09:56:00;9.80;99.90
19342;DHT22;9807;48.258;12.690;2024-03-23T09:58:26;9.70;99.90
19342;DHT22;9807;48.258;12.690;2024-03-23T10:00:52;9.70;99.90
19342;DHT22;9807;48.258;12.690;2024-03-23T10:03:17;9.60;99.90
19342;DHT22;9807;48.258;12.690;2024-03-23T10:05:43;9.60;99.90
19342;DHT22;9807;48.258;12.690;2024-03-23T10:10:44;9.60;99.90
19342;DHT22;9807;48.258;12.690;2024-03-23T10:13:11;9.60;99.90
19342;DHT22;9807;48.258;12.690;2024-03-23T10:15:57;9.60;99.90
19342;DHT22;9807;48.258;12.690;2024-03-23T10:18:24;9.50;99.90
19342;DHT22;9807;48.258;12.690;2024-03-23T10:23:31;9.50;99.90
19342;DHT22;9807;48.258;12.690;2024-03-23T10:26:20;9.50;99.90
19342;DHT22;9807;48.258;12.690;2024-03-23T10:28:58;9.60;99.90
19342;DHT22;9807;48.258;12.690;2024-03-23T10:31:30;9.60;99.90
19342;DHT22;9807;48.258;12.690;2024-03-23T10:33:56;9.70;99.90
19342;DHT22;9807;48.258;12.690;2024-03-23T10:36:22;9.70;99.90
19342;DHT22;9807;48.258;12.690;2024-03-23T10:38:50;9.80;99.90
19342;DHT22;9807;48.258;12.690;2024-03-23T10:41:18;9.70;99.90
19342;DHT22;9807;48.258;12.690;2024-03-23T10:43:46;9.70;99.90
19342;DHT22;9807;48.258;12.690;2024-03-23T10:46:12;9.70;99.90
19342;DHT22;9807;48.258;12.690;2024-03-23T10:48:38;9.70;99.90
19342;DHT22;9807;48.258;12.690;2024-03-23T10:51:07;9.80;99.90
19342;DHT22;9807;48.258;12.690;2024-03-23T10:53:34;9.80;99.90
19342;DHT22;9807;48.258;12.690;2024-03-23T10:55:59;9.80;99.90
19342;DHT22;9807;48.258;12.690;2024-03-23T10:58:43;9.80;99.90
19342;DHT22;9807;48.258;12.690;2024-03-23T11:01:13;9.70;99.90
19342;DHT22;9807;48.258;12.690;2024-03-23T11:03:40;9.60;99.90
19342;DHT22;9807;48.258;12.690;2024-03-23T11:06:10;9.60;99.90
19342;DHT22;9807;48.258;12.690;2024-03-23T11:08:40;9.50;99.90
19342;DHT22;9807;48.258;12.690;2024-03-23T11:11:17;9.40;99.90
19342;DHT22;9807;48.258;12.690;2024-03-23T11:13:44;9.30;99.90
19342;DHT22;9807;48.258;12.690;2024-03-23T11:16:36;9.10;99.90
19342;DHT22;9807;48.258;12.690;2024-03-23T11:19:36;9.00;99.90
19342;DHT22;9807;48.258;12.690;2024-03-23T11:22:02;9.10;99.90
19342;DHT22;9807;48.258;12.690;2024-03-23T11:24:28;9.30;99.90
19342;DHT22;9807;48.258;12.690;2024-03-23T11:26:54;9.30;99.90
19342;DHT22;9807;48.258;12.690;2024-03-23T11:29:20;9.40;99.90
19342;DHT22;9807;48.258;12.690;2024-03-23T11:31:53;9.40;99.90
19342;DHT22;9807;48.258;12.690;2024-03-23T11:34:19;9.40;99.90
19342;DHT22;9807;48.258;12.690;2024-03-23T11:36:46;9.40;99.90
19342;DHT22;9807;48.258;12.690;2024-03-23T11:39:19;9.30;99.90
19342;DHT22;9807;48.258;12.690;2024-03-23T11:41:53;9.30;99.90
19342;DHT22;9807;48.258;12.690;2024-03-23T11:44:23;9.20;99.90
19342;DHT22;9807;48.258;12.690;2024-03-23T11:46:50;9.10;99.90
19342;DHT22;9807;48.258;12.690;2024-03-23T11:51:49;9.10;99.90
19342;DHT22;9807;48.258;12.690;2024-03-23T11:54:16;9.10;99.90
19342;DHT22;9807;48.258;12.690;2024-03-23T11:56:57;8.60;99.90
19342;DHT22;9807;48.258;12.690;2024-03-23T12:01:58;8.20;99.90
19342;DHT22;9807;48.258;12.690;2024-03-23T12:04:30;8.10;99.90
19342;DHT22;9807;48.258;12.690;2024-03-23T12:07:18;8.10;99.90
19342;DHT22;9807;48.258;12.690;2024-03-23T12:09:45;8.10;99.90
19342;DHT22;9807;48.258;12.690;2024-03-23T12:12:17;8.10;99.90
19342;DHT22;9807;48.258;12.690;2024-03-23T12:15:03;8.20;99.90
19342;DHT22;9807;48.258;12.690;2024-03-23T12:17:29;8.30;99.90
19342;DHT22;9807;48.258;12.690;2024-03-23T12:19:54;8.40;99.90
19342;DHT22;9807;48.258;12.690;2024-03-23T12:22:21;8.40;99.90
19342;DHT22;9807;48.258;12.690;2024-03-23T12:24:48;8.40;99.90
19342;DHT22;9807;48.258;12.690;2024-03-23T12:27:13;8.50;99.90
19342;DHT22;9807;48.258;12.690;2024-03-23T12:29:40;8.50;99.90
19342;DHT22;9807;48.258;12.690;2024-03-23T12:32:12;8.60;99.90
19342;DHT22;9807;48.258;12.690;2024-03-23T12:34:38;8.50;99.90
19342;DHT22;9807;48.258;12.690;2024-03-23T12:37:04;8.60;99.90
19342;DHT22;9807;48.258;12.690;2024-03-23T12:39:29;8.60;99.90
19342;DHT22;9807;48.258;12.690;2024-03-23T12:41:55;8.70;99.90
19342;DHT22;9807;48.258;12.690;2024-03-23T12:44:21;8.70;99.90
19342;DHT22;9807;48.258;12.690;2024-03-23T12:46:47;8.70;99.90
19342;DHT22;9807;48.258;12.690;2024-03-23T12:49:12;8.80;99.90
19342;DHT22;9807;48.258;12.690;2024-03-23T12:51:38;8.80;99.90
19342;DHT22;9807;48.258;12.690;2024-03-23T12:54:04;8.80;99.90
19342;DHT22;9807;48.258;12.690;2024-03-23T12:56:30;8.80;99.90
19342;DHT22;9807;48.258;12.690;2024-03-23T12:58:56;8.80;99.90
19342;DHT22;9807;48.258;12.690;2024-03-23T13:01:25;8.80;99.90
19342;DHT22;9807;48.258;12.690;2024-03-23T13:03:51;8.90;99.90
19342;DHT22;9807;48.258;12.690;2024-03-23T13:06:18;8.90;99.90
19342;DHT22;9807;48.258;12.690;2024-03-23T13:08:45;8.90;99.90
19342;DHT22;9807;48.258;12.690;2024-03-23T13:11:11;8.90;99.90
19342;DHT22;9807;48.258;12.690;2024-03-23T13:13:37;8.90;99.90
19342;DHT22;9807;48.258;12.690;2024-03-23T13:16:04;8.90;99.90
19342;DHT22;9807;48.258;12.690;2024-03-23T13:18:31;9.00;99.90
19342;DHT22;9807;48.258;12.690;2024-03-23T13:20:56;9.00;99.90
19342;DHT22;9807;48.258;12.690;2024-03-23T13:23:22;9.00;99.90
19342;DHT22;9807;48.258;12.690;2024-03-23T13:25:55;9.00;99.90
19342;DHT22;9807;48.258;12.690;2024-03-23T13:28:22;9.10;99.90
19342;DHT22;9807;48.258;12.690;2024-03-23T13:30:54;9.20;99.90
19342;DHT22;9807;48.258;12.690;2024-03-23T13:33:21;9.20;99.90
19342;DHT22;9807;48.258;12.690;2024-03-23T13:35:51;9.10;99.90
19342;DHT22;9807;48.258;12.690;2024-03-23T13:38:17;9.20;99.90
19342;DHT22;9807;48.258;12.690;2024-03-23T13:40:50;9.20;99.90
19342;DHT22;9807;48.258;12.690;2024-03-23T13:43:16;9.30;99.90
19342;DHT22;9807;48.258;12.690;2024-03-23T13:45:42;9.40;99.90
19342;DHT22;9807;48.258;12.690;2024-03-23T13:48:07;9.50;99.90
19342;DHT22;9807;48.258;12.690;2024-03-23T13:50:34;9.40;99.90
19342;DHT22;9807;48.258;12.690;2024-03-23T13:53:00;9.40;99.90
19342;DHT22;9807;48.258;12.690;2024-03-23T13:55:25;9.40;99.90
19342;DHT22;9807;48.258;12.690;2024-03-23T13:57:51;9.40;99.90
19342;DHT22;9807;48.258;12.690;2024-03-23T14:00:17;9.40;99.90
19342;DHT22;9807;48.258;12.690;2024-03-23T14:02:44;9.40;99.90
19342;DHT22;9807;48.258;12.690;2024-03-23T14:05:10;9.50;99.90
19342;DHT22;9807;48.258;12.690;2024-03-23T14:07:37;9.60;99.90
19342;DHT22;9807;48.258;12.690;2024-03-23T14:10:03;9.60;99.90
19342;DHT22;9807;48.258;12.690;2024-03-23T14:12:30;9.60;99.90
19342;DHT22;9807;48.258;12.690;2024-03-23T14:14:56;9.60;99.90
19342;DHT22;9807;48.258;12.690;2024-03-23T14:17:21;9.70;99.90
19342;DHT22;9807;48.258;12.690;2024-03-23T14:19:47;9.60;99.90
19342;DHT22;9807;48.258;12.690;2024-03-23T14:22:13;9.50;99.90
19342;DHT22;9807;48.258;12.690;2024-03-23T14:24:39;9.50;99.90
19342;DHT22;9807;48.258;12.690;2024-03-23T14:27:04;9.50;99.90
19342;DHT22;9807;48.258;12.690;2024-03-23T14:29:32;9.40;99.90
19342;DHT22;9807;48.258;12.690;2024-03-23T14:31:59;9.40;99.90
19342;DHT22;9807;48.258;12.690;2024-03-23T14:34:26;9.40;99.90
19342;DHT22;9807;48.258;12.690;2024-03-23T14:36:55;9.40;99.90
19342;DHT22;9807;48.258;12.690;2024-03-23T14:39:24;9.40;99.90
19342;DHT22;9807;48.258;12.690;2024-03-23T14:41:52;9.40;99.90
19342;DHT22;9807;48.258;12.690;2024-03-23T14:44:18;9.40;99.90
19342;DHT22;9807;48.258;12.690;2024-03-23T14:46:44;9.40;99.90
19342;DHT22;9807;48.258;12.690;2024-03-23T14:49:14;9.40;99.90
19342;DHT22;9807;48.258;12.690;2024-03-23T14:51:42;9.30;99.90
19342;DHT22;9807;48.258;12.690;2024-03-23T14:54:08;9.30;99.90
19342;DHT22;9807;48.258;12.690;2024-03-23T14:56:35;9.30;99.90
19342;DHT22;9807;48.258;12.690;2024-03-23T14:59:01;9.10;99.90
19342;DHT22;9807;48.258;12.690;2024-03-23T15:01:28;8.20;99.90
19342;DHT22;9807;48.258;12.690;2024-03-23T15:03:54;7.50;99.90
19342;DHT22;9807;48.258;12.690;2024-03-23T15:06:19;7.20;99.90
19342;DHT22;9807;48.258;12.690;2024-03-23T15:08:45;7.10;99.90
19342;DHT22;9807;48.258;12.690;2024-03-23T15:11:11;7.10;99.90
19342;DHT22;9807;48.258;12.690;2024-03-23T15:13:37;7.10;99.90
19342;DHT22;9807;48.258;12.690;2024-03-23T15:16:04;7.00;99.90
19342;DHT22;9807;48.258;12.690;2024-03-23T15:18:31;7.10;99.90
19342;DHT22;9807;48.258;12.690;2024-03-23T15:20:58;7.10;99.90
19342;DHT22;9807;48.258;12.690;2024-03-23T15:23:27;7.00;99.90
19342;DHT22;9807;48.258;12.690;2024-03-23T15:25:56;7.00;99.90
19342;DHT22;9807;48.258;12.690;2024-03-23T15:28:25;7.00;99.90
19342;DHT22;9807;48.258;12.690;2024-03-23T15:31:05;7.00;99.90
19342;DHT22;9807;48.258;12.690;2024-03-23T15:33:30;6.90;99.90
19342;DHT22;9807;48.258;12.690;2024-03-23T15:36:03;6.80;99.90
19342;DHT22;9807;48.258;12.690;2024-03-23T15:38:30;6.70;99.90
19342;DHT22;9807;48.258;12.690;2024-03-23T15:40:57;6.70;99.90
19342;DHT22;9807;48.258;12.690;2024-03-23T15:43:22;6.70;99.90
19342;DHT22;9807;48.258;12.690;2024-03-23T15:46:01;6.70;99.90
19342;DHT22;9807;48.258;12.690;2024-03-23T15:48:28;6.80;99.90
19342;DHT22;9807;48.258;12.690;2024-03-23T15:50:56;6.90;99.90
19342;DHT22;9807;48.258;12.690;2024-03-23T15:53:23;6.90;99.90
19342;DHT22;9807;48.258;12.690;2024-03-23T15:56:02;7.10;99.90
19342;DHT22;9807;48.258;12.690;2024-03-23T15:58:29;7.10;99.90
19342;DHT22;9807;48.258;12.690;2024-03-23T16:01:03;7.20;99.90
19342;DHT22;9807;48.258;12.690;2024-03-23T16:03:30;7.40;99.90
19342;DHT22;9807;48.258;12.690;2024-03-23T16:06:01;7.60;99.90
19342;DHT22;9807;48.258;12.690;2024-03-23T16:08:29;7.70;99.90
19342;DHT22;9807;48.258;12.690;2024-03-23T16:11:03;7.50;99.90
19342;DHT22;9807;48.258;12.690;2024-03-23T16:13:29;7.50;99.90
19342;DHT22;9807;48.258;12.690;2024-03-23T16:15:56;7.40;99.90
19342;DHT22;9807;48.258;12.690;2024-03-23T16:18:22;7.60;99.90
19342;DHT22;9807;48.258;12.690;2024-03-23T16:20:56;7.80;99.90
19342;DHT22;9807;48.258;12.690;2024-03-23T16:23:22;7.80;99.90
19342;DHT22;9807;48.258;12.690;2024-03-23T16:25:51;7.60;99.90
19342;DHT22;9807;48.258;12.690;2024-03-23T16:28:32;7.70;99.90
19342;DHT22;9807;48.258;12.690;2024-03-23T16:31:08;7.90;99.90
19342;DHT22;9807;48.258;12.690;2024-03-23T16:33:36;8.10;99.90
19342;DHT22;9807;48.258;12.690;2024-03-23T16:36:07;8.20;99.90
19342;DHT22;9807;48.258;12.690;2024-03-23T16:38:37;8.30;99.90
19342;DHT22;9807;48.258;12.690;2024-03-23T16:41:11;8.30;99.90